sensor_id;sensor_type;location;lat;lon;timestamp;P1;durP1;ratioP1;P2;durP2;ratioP2
65234;SDS011;51820;48.374;10.930;2023-01-25T00:04:56;22.98;;;9.40;;
65234;SDS011;51820;48.374;10.930;2023-01-25T00:07:26;25.42;;;9.13;;
65234;SDS011;51820;48.374;10.930;2023-01-25T00:09:54;26.00;;;9.23;;
65234;SDS011;51820;48.374;10.930;2023-01-25T00:12:25;28.13;;;9.97;;
65234;SDS011;51820;48.374;10.930;2023-01-25T00:15:48;25.20;;;9.38;;
65234;SDS011;51820;48.374;10.930;2023-01-25T00:18:17;25.77;;;10.40;;
65234;SDS011;51820;48.374;10.930;2023-01-25T00:20:46;29.67;;;10.40;;
65234;SDS011;51820;48.374;10.930;2023-01-25T00:23:17;21.45;;;9.45;;
65234;SDS011;51820;48.374;10.930;2023-01-25T00:25:45;23.63;;;8.90;;
65234;SDS011;51820;48.374;10.930;2023-01-25T00:28:14;25.60;;;9.85;;
65234;SDS011;51820;48.374;10.930;2023-01-25T00:30:45;23.77;;;9.35;;
65234;SDS011;51820;48.374;10.930;2023-01-25T00:36:01;23.90;;;9.77;;
65234;SDS011;51820;48.374;10.930;2023-01-25T00:38:53;25.07;;;9.60;;
65234;SDS011;51820;48.374;10.930;2023-01-25T00:41:21;26.17;;;10.18;;
65234;SDS011;51820;48.374;10.930;2023-01-25T00:43:50;25.33;;;9.70;;
65234;SDS011;51820;48.374;10.930;2023-01-25T00:46:18;26.42;;;9.63;;
65234;SDS011;51820;48.374;10.930;2023-01-25T00:48:47;25.30;;;9.82;;
65234;SDS011;51820;48.374;10.930;2023-01-25T00:51:18;26.63;;;9.03;;
65234;SDS011;51820;48.374;10.930;2023-01-25T00:53:46;23.55;;;8.85;;
65234;SDS011;51820;48.374;10.930;2023-01-25T00:56:17;23.27;;;8.57;;
65234;SDS011;51820;48.374;10.930;2023-01-25T00:58:45;23.42;;;9.48;;
65234;SDS011;51820;48.374;10.930;2023-01-25T01:01:16;23.00;;;8.90;;
65234;SDS011;51820;48.374;10.930;2023-01-25T01:03:45;25.67;;;9.57;;
65234;SDS011;51820;48.374;10.930;2023-01-25T01:06:14;24.83;;;9.45;;
65234;SDS011;51820;48.374;10.930;2023-01-25T01:08:43;25.33;;;9.73;;
65234;SDS011;51820;48.374;10.930;2023-01-25T01:11:12;22.75;;;9.43;;
65234;SDS011;51820;48.374;10.930;2023-01-25T01:13:42;26.05;;;9.32;;
65234;SDS011;51820;48.374;10.930;2023-01-25T01:16:11;25.73;;;9.97;;
65234;SDS011;51820;48.374;10.930;2023-01-25T01:18:41;25.63;;;9.93;;
65234;SDS011;51820;48.374;10.930;2023-01-25T01:21:12;24.77;;;9.75;;
65234;SDS011;51820;48.374;10.930;2023-01-25T01:23:50;27.40;;;9.98;;
65234;SDS011;51820;48.374;10.930;2023-01-25T01:26:19;27.35;;;10.05;;
65234;SDS011;51820;48.374;10.930;2023-01-25T01:28:49;27.57;;;10.70;;
65234;SDS011;51820;48.374;10.930;2023-01-25T01:31:19;25.50;;;10.45;;
65234;SDS011;51820;48.374;10.930;2023-01-25T01:34:18;27.13;;;10.35;;
65234;SDS011;51820;48.374;10.930;2023-01-25T01:36:49;27.25;;;10.05;;
65234;SDS011;51820;48.374;10.930;2023-01-25T01:39:20;27.15;;;10.50;;
65234;SDS011;51820;48.374;10.930;2023-01-25T01:41:50;29.00;;;11.00;;
65234;SDS011;51820;48.374;10.930;2023-01-25T01:44:39;27.60;;;10.60;;
65234;SDS011;51820;48.374;10.930;2023-01-25T01:47:15;27.52;;;9.32;;
65234;SDS011;51820;48.374;10.930;2023-01-25T01:53:04;25.27;;;9.43;;
65234;SDS011;51820;48.374;10.930;2023-01-25T01:56:04;25.73;;;9.93;;
65234;SDS011;51820;48.374;10.930;2023-01-25T01:58:37;25.45;;;9.07;;
65234;SDS011;51820;48.374;10.930;2023-01-25T02:01:09;25.00;;;9.40;;
65234;SDS011;51820;48.374;10.930;2023-01-25T02:03:39;25.20;;;10.02;;
65234;SDS011;51820;48.374;10.930;2023-01-25T02:06:09;24.73;;;9.43;;
65234;SDS011;51820;48.374;10.930;2023-01-25T02:08:45;26.23;;;9.43;;
65234;SDS011;51820;48.374;10.930;2023-01-25T02:11:14;25.33;;;9.68;;
65234;SDS011;51820;48.374;10.930;2023-01-25T02:13:42;28.80;;;10.15;;
65234;SDS011;51820;48.374;10.930;2023-01-25T02:16:15;24.52;;;9.30;;
65234;SDS011;51820;48.374;10.930;2023-01-25T02:18:49;25.23;;;9.32;;
65234;SDS011;51820;48.374;10.930;2023-01-25T02:21:17;22.43;;;9.00;;
65234;SDS011;51820;48.374;10.930;2023-01-25T02:23:47;25.80;;;9.60;;
65234;SDS011;51820;48.374;10.930;2023-01-25T02:26:21;24.70;;;8.40;;
65234;SDS011;51820;48.374;10.930;2023-01-25T02:28:52;24.30;;;8.50;;
65234;SDS011;51820;48.374;10.930;2023-01-25T02:31:27;27.40;;;9.43;;
65234;SDS011;51820;48.374;10.930;2023-01-25T02:33:58;30.60;;;9.93;;
65234;SDS011;51820;48.374;10.930;2023-01-25T02:36:27;25.70;;;9.35;;
65234;SDS011;51820;48.374;10.930;2023-01-25T02:38:59;28.50;;;9.27;;
65234;SDS011;51820;48.374;10.930;2023-01-25T02:41:32;24.20;;;9.10;;
65234;SDS011;51820;48.374;10.930;2023-01-25T02:44:02;25.70;;;9.32;;
65234;SDS011;51820;48.374;10.930;2023-01-25T02:46:33;27.07;;;9.13;;
65234;SDS011;51820;48.374;10.930;2023-01-25T02:49:03;28.33;;;9.75;;
65234;SDS011;51820;48.374;10.930;2023-01-25T02:51:38;29.27;;;10.18;;
65234;SDS011;51820;48.374;10.930;2023-01-25T02:54:08;27.85;;;8.88;;
65234;SDS011;51820;48.374;10.930;2023-01-25T02:56:40;27.45;;;10.05;;
65234;SDS011;51820;48.374;10.930;2023-01-25T02:59:10;30.30;;;9.13;;
65234;SDS011;51820;48.374;10.930;2023-01-25T03:01:43;35.22;;;11.20;;
65234;SDS011;51820;48.374;10.930;2023-01-25T03:04:14;28.90;;;10.20;;
65234;SDS011;51820;48.374;10.930;2023-01-25T03:06:43;27.27;;;9.52;;
65234;SDS011;51820;48.374;10.930;2023-01-25T03:09:15;27.17;;;9.80;;
65234;SDS011;51820;48.374;10.930;2023-01-25T03:11:48;29.37;;;10.07;;
65234;SDS011;51820;48.374;10.930;2023-01-25T03:14:19;32.85;;;10.73;;
65234;SDS011;51820;48.374;10.930;2023-01-25T03:16:48;29.60;;;9.90;;
65234;SDS011;51820;48.374;10.930;2023-01-25T03:19:20;29.25;;;9.35;;
65234;SDS011;51820;48.374;10.930;2023-01-25T03:21:48;30.90;;;10.15;;
65234;SDS011;51820;48.374;10.930;2023-01-25T03:24:17;28.90;;;8.23;;
65234;SDS011;51820;48.374;10.930;2023-01-25T03:26:48;22.52;;;8.20;;
65234;SDS011;51820;48.374;10.930;2023-01-25T03:29:46;23.70;;;9.07;;
65234;SDS011;51820;48.374;10.930;2023-01-25T03:32:20;27.73;;;8.90;;
65234;SDS011;51820;48.374;10.930;2023-01-25T03:34:50;25.98;;;8.77;;
65234;SDS011;51820;48.374;10.930;2023-01-25T03:37:19;25.17;;;9.17;;
65234;SDS011;51820;48.374;10.930;2023-01-25T03:39:48;28.23;;;8.73;;
65234;SDS011;51820;48.374;10.930;2023-01-25T03:42:20;28.70;;;9.25;;
65234;SDS011;51820;48.374;10.930;2023-01-25T03:44:53;30.40;;;10.00;;
65234;SDS011;51820;48.374;10.930;2023-01-25T03:47:22;25.95;;;9.48;;
65234;SDS011;51820;48.374;10.930;2023-01-25T03:49:51;28.13;;;9.43;;
65234;SDS011;51820;48.374;10.930;2023-01-25T03:52:21;25.50;;;8.50;;
65234;SDS011;51820;48.374;10.930;2023-01-25T03:54:52;25.58;;;8.77;;
65234;SDS011;51820;48.374;10.930;2023-01-25T03:57:23;26.33;;;9.82;;
65234;SDS011;51820;48.374;10.930;2023-01-25T03:59:59;27.27;;;9.38;;
65234;SDS011;51820;48.374;10.930;2023-01-25T04:02:30;27.10;;;10.07;;
65234;SDS011;51820;48.374;10.930;2023-01-25T04:05:00;24.92;;;8.77;;
65234;SDS011;51820;48.374;10.930;2023-01-25T04:07:28;29.02;;;9.02;;
65234;SDS011;51820;48.374;10.930;2023-01-25T04:10:02;26.92;;;9.25;;
65234;SDS011;51820;48.374;10.930;2023-01-25T04:12:34;23.60;;;8.40;;
65234;SDS011;51820;48.374;10.930;2023-01-25T04:15:04;22.80;;;7.50;;
65234;SDS011;51820;48.374;10.930;2023-01-25T04:17:35;23.35;;;7.57;;
65234;SDS011;51820;48.374;10.930;2023-01-25T04:20:18;24.80;;;9.10;;
65234;SDS011;51820;48.374;10.930;2023-01-25T04:22:46;21.73;;;8.05;;
65234;SDS011;51820;48.374;10.930;2023-01-25T04:25:17;25.55;;;9.27;;
65234;SDS011;51820;48.374;10.930;2023-01-25T04:27:52;25.17;;;8.50;;
65234;SDS011;51820;48.374;10.930;2023-01-25T04:30:20;27.50;;;8.85;;
65234;SDS011;51820;48.374;10.930;2023-01-25T04:32:49;22.52;;;9.20;;
65234;SDS011;51820;48.374;10.930;2023-01-25T04:35:28;23.90;;;7.75;;
65234;SDS011;51820;48.374;10.930;2023-01-25T04:37:58;22.02;;;7.95;;
65234;SDS011;51820;48.374;10.930;2023-01-25T04:40:37;26.40;;;8.77;;
65234;SDS011;51820;48.374;10.930;2023-01-25T04:43:07;27.70;;;9.45;;
65234;SDS011;51820;48.374;10.930;2023-01-25T04:45:36;26.15;;;10.00;;
65234;SDS011;51820;48.374;10.930;2023-01-25T04:48:12;27.33;;;9.98;;
65234;SDS011;51820;48.374;10.930;2023-01-25T04:50:49;24.63;;;8.68;;
65234;SDS011;51820;48.374;10.930;2023-01-25T04:53:20;24.03;;;9.23;;
65234;SDS011;51820;48.374;10.930;2023-01-25T04:55:50;25.23;;;8.95;;
65234;SDS011;51820;48.374;10.930;2023-01-25T04:58:20;23.83;;;8.35;;
65234;SDS011;51820;48.374;10.930;2023-01-25T05:00:51;21.70;;;7.45;;
65234;SDS011;51820;48.374;10.930;2023-01-25T05:03:20;25.40;;;8.63;;
65234;SDS011;51820;48.374;10.930;2023-01-25T05:05:51;22.10;;;8.40;;
65234;SDS011;51820;48.374;10.930;2023-01-25T05:08:22;19.23;;;8.05;;
65234;SDS011;51820;48.374;10.930;2023-01-25T05:10:54;22.02;;;7.93;;
65234;SDS011;51820;48.374;10.930;2023-01-25T05:13:27;24.08;;;8.82;;
65234;SDS011;51820;48.374;10.930;2023-01-25T05:16:24;21.90;;;7.45;;
65234;SDS011;51820;48.374;10.930;2023-01-25T05:18:53;21.70;;;7.50;;
65234;SDS011;51820;48.374;10.930;2023-01-25T05:21:30;24.05;;;7.82;;
65234;SDS011;51820;48.374;10.930;2023-01-25T05:24:18;21.27;;;7.68;;
65234;SDS011;51820;48.374;10.930;2023-01-25T05:26:47;20.20;;;7.57;;
65234;SDS011;51820;48.374;10.930;2023-01-25T05:29:53;23.83;;;7.53;;
65234;SDS011;51820;48.374;10.930;2023-01-25T05:32:47;21.53;;;7.90;;
65234;SDS011;51820;48.374;10.930;2023-01-25T05:35:16;22.67;;;7.68;;
65234;SDS011;51820;48.374;10.930;2023-01-25T05:37:47;22.17;;;8.50;;
65234;SDS011;51820;48.374;10.930;2023-01-25T05:40:21;27.13;;;7.32;;
65234;SDS011;51820;48.374;10.930;2023-01-25T05:42:53;20.50;;;7.63;;
65234;SDS011;51820;48.374;10.930;2023-01-25T05:45:25;20.87;;;7.53;;
65234;SDS011;51820;48.374;10.930;2023-01-25T05:47:54;17.50;;;6.40;;
65234;SDS011;51820;48.374;10.930;2023-01-25T05:50:23;22.23;;;7.00;;
65234;SDS011;51820;48.374;10.930;2023-01-25T05:53:08;21.48;;;7.65;;
65234;SDS011;51820;48.374;10.930;2023-01-25T05:55:38;34.78;;;8.13;;
65234;SDS011;51820;48.374;10.930;2023-01-25T05:58:11;22.97;;;7.10;;
65234;SDS011;51820;48.374;10.930;2023-01-25T06:00:42;20.52;;;7.55;;
65234;SDS011;51820;48.374;10.930;2023-01-25T06:03:20;18.08;;;7.25;;
65234;SDS011;51820;48.374;10.930;2023-01-25T06:05:53;20.80;;;7.40;;
65234;SDS011;51820;48.374;10.930;2023-01-25T06:08:22;22.23;;;7.95;;
65234;SDS011;51820;48.374;10.930;2023-01-25T06:10:52;24.77;;;8.70;;
65234;SDS011;51820;48.374;10.930;2023-01-25T06:13:21;25.95;;;7.88;;
65234;SDS011;51820;48.374;10.930;2023-01-25T06:15:54;26.45;;;8.77;;
65234;SDS011;51820;48.374;10.930;2023-01-25T06:18:41;24.30;;;7.88;;
65234;SDS011;51820;48.374;10.930;2023-01-25T06:21:22;25.60;;;8.38;;
65234;SDS011;51820;48.374;10.930;2023-01-25T06:23:50;21.27;;;6.63;;
65234;SDS011;51820;48.374;10.930;2023-01-25T06:26:19;24.02;;;8.82;;
65234;SDS011;51820;48.374;10.930;2023-01-25T06:28:47;24.00;;;7.43;;
65234;SDS011;51820;48.374;10.930;2023-01-25T06:31:20;21.05;;;7.30;;
65234;SDS011;51820;48.374;10.930;2023-01-25T06:33:48;20.92;;;8.00;;
65234;SDS011;51820;48.374;10.930;2023-01-25T06:36:20;20.00;;;7.07;;
65234;SDS011;51820;48.374;10.930;2023-01-25T06:38:49;22.23;;;8.15;;
65234;SDS011;51820;48.374;10.930;2023-01-25T06:41:19;22.27;;;7.60;;
65234;SDS011;51820;48.374;10.930;2023-01-25T06:43:48;22.73;;;8.10;;
65234;SDS011;51820;48.374;10.930;2023-01-25T06:46:18;26.73;;;9.02;;
65234;SDS011;51820;48.374;10.930;2023-01-25T06:48:48;24.40;;;7.97;;
65234;SDS011;51820;48.374;10.930;2023-01-25T06:51:17;23.15;;;7.95;;
65234;SDS011;51820;48.374;10.930;2023-01-25T06:53:45;22.58;;;8.40;;
65234;SDS011;51820;48.374;10.930;2023-01-25T06:56:20;24.15;;;8.82;;
65234;SDS011;51820;48.374;10.930;2023-01-25T06:58:49;21.45;;;8.18;;
65234;SDS011;51820;48.374;10.930;2023-01-25T07:01:23;24.60;;;8.77;;
65234;SDS011;51820;48.374;10.930;2023-01-25T07:03:57;23.50;;;7.65;;
65234;SDS011;51820;48.374;10.930;2023-01-25T07:06:32;25.23;;;8.43;;
65234;SDS011;51820;48.374;10.930;2023-01-25T07:09:01;30.02;;;8.75;;
65234;SDS011;51820;48.374;10.930;2023-01-25T07:11:30;23.77;;;8.52;;
65234;SDS011;51820;48.374;10.930;2023-01-25T07:13:59;24.47;;;7.80;;
65234;SDS011;51820;48.374;10.930;2023-01-25T07:16:27;24.52;;;7.85;;
65234;SDS011;51820;48.374;10.930;2023-01-25T07:19:03;23.00;;;8.05;;
65234;SDS011;51820;48.374;10.930;2023-01-25T07:21:32;24.98;;;8.20;;
65234;SDS011;51820;48.374;10.930;2023-01-25T07:24:01;25.25;;;8.50;;
65234;SDS011;51820;48.374;10.930;2023-01-25T07:26:30;32.83;;;9.50;;
65234;SDS011;51820;48.374;10.930;2023-01-25T07:28:59;23.02;;;7.93;;
65234;SDS011;51820;48.374;10.930;2023-01-25T07:31:27;21.77;;;8.15;;
65234;SDS011;51820;48.374;10.930;2023-01-25T07:33:56;23.77;;;8.10;;
65234;SDS011;51820;48.374;10.930;2023-01-25T07:36:28;26.30;;;9.00;;
65234;SDS011;51820;48.374;10.930;2023-01-25T07:38:57;21.70;;;8.50;;
65234;SDS011;51820;48.374;10.930;2023-01-25T07:41:26;28.02;;;9.25;;
65234;SDS011;51820;48.374;10.930;2023-01-25T07:43:54;24.08;;;8.70;;
65234;SDS011;51820;48.374;10.930;2023-01-25T07:46:39;25.88;;;8.63;;
65234;SDS011;51820;48.374;10.930;2023-01-25T07:49:07;26.88;;;8.68;;
65234;SDS011;51820;48.374;10.930;2023-01-25T07:51:37;26.80;;;8.97;;
65234;SDS011;51820;48.374;10.930;2023-01-25T07:54:05;25.90;;;8.82;;
65234;SDS011;51820;48.374;10.930;2023-01-25T07:56:34;27.17;;;7.63;;
65234;SDS011;51820;48.374;10.930;2023-01-25T07:59:06;24.45;;;8.02;;
65234;SDS011;51820;48.374;10.930;2023-01-25T08:01:35;35.42;;;11.13;;
65234;SDS011;51820;48.374;10.930;2023-01-25T08:04:04;27.03;;;10.17;;
65234;SDS011;51820;48.374;10.930;2023-01-25T08:06:34;23.38;;;8.20;;
65234;SDS011;51820;48.374;10.930;2023-01-25T08:09:06;24.13;;;8.77;;
65234;SDS011;51820;48.374;10.930;2023-01-25T08:11:39;21.15;;;7.78;;
65234;SDS011;51820;48.374;10.930;2023-01-25T08:14:14;26.33;;;8.23;;
65234;SDS011;51820;48.374;10.930;2023-01-25T08:16:43;26.23;;;7.90;;
65234;SDS011;51820;48.374;10.930;2023-01-25T08:19:12;22.52;;;8.32;;
65234;SDS011;51820;48.374;10.930;2023-01-25T08:21:42;21.42;;;7.63;;
65234;SDS011;51820;48.374;10.930;2023-01-25T08:24:10;35.00;;;8.65;;
65234;SDS011;51820;48.374;10.930;2023-01-25T08:26:42;23.52;;;9.27;;
65234;SDS011;51820;48.374;10.930;2023-01-25T08:29:12;22.43;;;8.87;;
65234;SDS011;51820;48.374;10.930;2023-01-25T08:31:41;21.70;;;7.47;;
65234;SDS011;51820;48.374;10.930;2023-01-25T08:34:10;23.52;;;7.53;;
65234;SDS011;51820;48.374;10.930;2023-01-25T08:36:40;24.10;;;8.18;;
65234;SDS011;51820;48.374;10.930;2023-01-25T08:39:10;26.77;;;8.05;;
65234;SDS011;51820;48.374;10.930;2023-01-25T08:41:40;27.03;;;9.20;;
65234;SDS011;51820;48.374;10.930;2023-01-25T08:44:08;22.63;;;8.05;;
65234;SDS011;51820;48.374;10.930;2023-01-25T08:46:37;22.52;;;8.13;;
65234;SDS011;51820;48.374;10.930;2023-01-25T08:49:06;22.05;;;6.53;;
65234;SDS011;51820;48.374;10.930;2023-01-25T08:51:36;21.30;;;7.38;;
65234;SDS011;51820;48.374;10.930;2023-01-25T08:54:05;20.73;;;6.30;;
65234;SDS011;51820;48.374;10.930;2023-01-25T08:56:36;19.83;;;6.22;;
65234;SDS011;51820;48.374;10.930;2023-01-25T08:59:06;20.33;;;6.82;;
65234;SDS011;51820;48.374;10.930;2023-01-25T09:01:35;20.75;;;6.15;;
65234;SDS011;51820;48.374;10.930;2023-01-25T09:04:03;19.38;;;6.47;;
65234;SDS011;51820;48.374;10.930;2023-01-25T09:06:32;20.87;;;6.93;;
65234;SDS011;51820;48.374;10.930;2023-01-25T09:09:00;23.67;;;7.18;;
65234;SDS011;51820;48.374;10.930;2023-01-25T09:11:31;23.38;;;7.40;;
65234;SDS011;51820;48.374;10.930;2023-01-25T09:14:04;23.38;;;7.55;;
65234;SDS011;51820;48.374;10.930;2023-01-25T09:16:32;24.48;;;8.00;;
65234;SDS011;51820;48.374;10.930;2023-01-25T09:19:01;22.83;;;7.23;;
65234;SDS011;51820;48.374;10.930;2023-01-25T09:21:30;25.15;;;7.75;;
65234;SDS011;51820;48.374;10.930;2023-01-25T09:23:59;21.17;;;7.40;;
65234;SDS011;51820;48.374;10.930;2023-01-25T09:26:33;21.40;;;7.43;;
65234;SDS011;51820;48.374;10.930;2023-01-25T09:29:04;27.25;;;9.27;;
65234;SDS011;51820;48.374;10.930;2023-01-25T09:31:34;24.53;;;8.77;;
65234;SDS011;51820;48.374;10.930;2023-01-25T09:34:17;21.92;;;7.05;;
65234;SDS011;51820;48.374;10.930;2023-01-25T09:36:47;23.52;;;7.57;;
65234;SDS011;51820;48.374;10.930;2023-01-25T09:39:16;24.83;;;7.80;;
65234;SDS011;51820;48.374;10.930;2023-01-25T09:41:50;22.17;;;7.38;;
65234;SDS011;51820;48.374;10.930;2023-01-25T09:44:46;22.43;;;7.60;;
65234;SDS011;51820;48.374;10.930;2023-01-25T09:47:37;24.00;;;8.02;;
65234;SDS011;51820;48.374;10.930;2023-01-25T09:50:16;29.98;;;8.77;;
65234;SDS011;51820;48.374;10.930;2023-01-25T09:52:59;22.70;;;7.80;;
65234;SDS011;51820;48.374;10.930;2023-01-25T09:55:42;17.45;;;6.22;;
65234;SDS011;51820;48.374;10.930;2023-01-25T09:58:12;21.93;;;7.50;;
65234;SDS011;51820;48.374;10.930;2023-01-25T10:00:46;19.85;;;7.05;;
65234;SDS011;51820;48.374;10.930;2023-01-25T10:03:19;21.08;;;8.02;;
65234;SDS011;51820;48.374;10.930;2023-01-25T10:05:50;26.38;;;7.85;;
65234;SDS011;51820;48.374;10.930;2023-01-25T10:08:26;24.80;;;7.15;;
65234;SDS011;51820;48.374;10.930;2023-01-25T10:10:59;24.27;;;7.40;;
65234;SDS011;51820;48.374;10.930;2023-01-25T10:13:34;27.60;;;7.82;;
65234;SDS011;51820;48.374;10.930;2023-01-25T10:16:05;21.52;;;7.60;;
65234;SDS011;51820;48.374;10.930;2023-01-25T10:18:54;22.35;;;7.80;;
65234;SDS011;51820;48.374;10.930;2023-01-25T10:21:31;20.20;;;6.90;;
65234;SDS011;51820;48.374;10.930;2023-01-25T10:24:12;24.80;;;7.80;;
65234;SDS011;51820;48.374;10.930;2023-01-25T10:26:55;24.95;;;7.82;;
65234;SDS011;51820;48.374;10.930;2023-01-25T10:29:31;26.90;;;8.65;;
65234;SDS011;51820;48.374;10.930;2023-01-25T10:32:10;29.08;;;8.48;;
65234;SDS011;51820;48.374;10.930;2023-01-25T10:34:43;22.17;;;7.32;;
65234;SDS011;51820;48.374;10.930;2023-01-25T10:37:23;23.53;;;8.13;;
65234;SDS011;51820;48.374;10.930;2023-01-25T10:39:57;25.25;;;8.02;;
65234;SDS011;51820;48.374;10.930;2023-01-25T10:42:32;23.63;;;8.65;;
65234;SDS011;51820;48.374;10.930;2023-01-25T10:45:09;22.83;;;8.57;;
65234;SDS011;51820;48.374;10.930;2023-01-25T10:47:44;22.17;;;8.00;;
65234;SDS011;51820;48.374;10.930;2023-01-25T10:56:09;18.77;;;7.07;;
65234;SDS011;51820;48.374;10.930;2023-01-25T10:58:47;20.30;;;6.93;;
65234;SDS011;51820;48.374;10.930;2023-01-25T11:01:56;24.48;;;8.05;;
65234;SDS011;51820;48.374;10.930;2023-01-25T11:05:29;25.57;;;8.20;;
65234;SDS011;51820;48.374;10.930;2023-01-25T11:08:16;25.38;;;8.25;;
65234;SDS011;51820;48.374;10.930;2023-01-25T11:10:49;24.02;;;8.48;;
65234;SDS011;51820;48.374;10.930;2023-01-25T11:13:19;22.45;;;8.52;;
65234;SDS011;51820;48.374;10.930;2023-01-25T11:15:49;25.92;;;8.13;;
65234;SDS011;51820;48.374;10.930;2023-01-25T11:18:20;25.33;;;8.63;;
65234;SDS011;51820;48.374;10.930;2023-01-25T11:21:05;24.70;;;8.63;;
65234;SDS011;51820;48.374;10.930;2023-01-25T11:23:38;23.55;;;8.02;;
65234;SDS011;51820;48.374;10.930;2023-01-25T11:26:10;24.42;;;8.63;;
65234;SDS011;51820;48.374;10.930;2023-01-25T11:28:40;23.85;;;8.32;;
65234;SDS011;51820;48.374;10.930;2023-01-25T11:31:10;24.13;;;8.00;;
65234;SDS011;51820;48.374;10.930;2023-01-25T11:33:40;23.73;;;8.65;;
65234;SDS011;51820;48.374;10.930;2023-01-25T11:36:12;21.55;;;6.78;;
65234;SDS011;51820;48.374;10.930;2023-01-25T11:38:50;30.13;;;8.20;;
65234;SDS011;51820;48.374;10.930;2023-01-25T11:42:55;23.38;;;7.93;;
65234;SDS011;51820;48.374;10.930;2023-01-25T11:48:31;23.60;;;7.80;;
65234;SDS011;51820;48.374;10.930;2023-01-25T11:51:26;23.77;;;8.25;;
65234;SDS011;51820;48.374;10.930;2023-01-25T11:54:11;25.85;;;8.23;;
65234;SDS011;51820;48.374;10.930;2023-01-25T11:57:02;23.90;;;8.50;;
65234;SDS011;51820;48.374;10.930;2023-01-25T11:59:42;23.40;;;8.47;;
65234;SDS011;51820;48.374;10.930;2023-01-25T12:02:28;30.13;;;9.15;;
65234;SDS011;51820;48.374;10.930;2023-01-25T12:05:36;29.90;;;9.73;;
65234;SDS011;51820;48.374;10.930;2023-01-25T12:08:16;31.15;;;8.85;;
65234;SDS011;51820;48.374;10.930;2023-01-25T12:10:59;29.52;;;9.23;;
65234;SDS011;51820;48.374;10.930;2023-01-25T12:13:34;26.87;;;9.30;;
65234;SDS011;51820;48.374;10.930;2023-01-25T12:16:14;25.08;;;8.00;;
65234;SDS011;51820;48.374;10.930;2023-01-25T12:18:54;28.25;;;8.15;;
65234;SDS011;51820;48.374;10.930;2023-01-25T12:21:38;31.23;;;9.27;;
65234;SDS011;51820;48.374;10.930;2023-01-25T12:24:22;28.48;;;9.50;;
65234;SDS011;51820;48.374;10.930;2023-01-25T12:26:59;26.47;;;8.43;;
65234;SDS011;51820;48.374;10.930;2023-01-25T12:29:38;22.63;;;8.13;;
65234;SDS011;51820;48.374;10.930;2023-01-25T12:32:12;26.85;;;8.55;;
65234;SDS011;51820;48.374;10.930;2023-01-25T12:34:45;28.80;;;8.60;;
65234;SDS011;51820;48.374;10.930;2023-01-25T12:37:18;27.00;;;9.10;;
65234;SDS011;51820;48.374;10.930;2023-01-25T12:42:46;29.13;;;8.70;;
65234;SDS011;51820;48.374;10.930;2023-01-25T12:45:21;27.40;;;9.68;;
65234;SDS011;51820;48.374;10.930;2023-01-25T12:47:59;28.63;;;9.73;;
65234;SDS011;51820;48.374;10.930;2023-01-25T12:50:30;31.77;;;10.88;;
65234;SDS011;51820;48.374;10.930;2023-01-25T12:53:12;28.37;;;9.80;;
65234;SDS011;51820;48.374;10.930;2023-01-25T12:55:47;28.02;;;9.77;;
65234;SDS011;51820;48.374;10.930;2023-01-25T12:58:19;30.98;;;10.65;;
65234;SDS011;51820;48.374;10.930;2023-01-25T13:01:04;31.75;;;10.50;;
65234;SDS011;51820;48.374;10.930;2023-01-25T13:03:46;29.67;;;9.20;;
65234;SDS011;51820;48.374;10.930;2023-01-25T13:06:28;28.73;;;9.27;;
65234;SDS011;51820;48.374;10.930;2023-01-25T13:09:04;30.15;;;9.65;;
65234;SDS011;51820;48.374;10.930;2023-01-25T13:11:41;29.55;;;10.50;;
65234;SDS011;51820;48.374;10.930;2023-01-25T13:14:21;30.58;;;10.88;;
65234;SDS011;51820;48.374;10.930;2023-01-25T13:17:08;28.67;;;10.23;;
65234;SDS011;51820;48.374;10.930;2023-01-25T13:19:51;31.70;;;10.20;;
65234;SDS011;51820;48.374;10.930;2023-01-25T13:22:52;34.78;;;10.63;;
65234;SDS011;51820;48.374;10.930;2023-01-25T13:25:24;33.30;;;10.95;;
65234;SDS011;51820;48.374;10.930;2023-01-25T13:31:06;35.20;;;10.50;;
65234;SDS011;51820;48.374;10.930;2023-01-25T13:33:35;30.07;;;9.43;;
65234;SDS011;51820;48.374;10.930;2023-01-25T13:42:17;28.77;;;9.57;;
65234;SDS011;51820;48.374;10.930;2023-01-25T13:44:50;28.67;;;9.85;;
65234;SDS011;51820;48.374;10.930;2023-01-25T13:47:21;33.97;;;10.70;;
65234;SDS011;51820;48.374;10.930;2023-01-25T13:49:58;26.77;;;9.73;;
65234;SDS011;51820;48.374;10.930;2023-01-25T13:52:31;31.67;;;10.38;;
65234;SDS011;51820;48.374;10.930;2023-01-25T13:55:00;28.92;;;10.23;;
65234;SDS011;51820;48.374;10.930;2023-01-25T13:57:30;28.85;;;8.38;;
65234;SDS011;51820;48.374;10.930;2023-01-25T14:00:02;31.37;;;9.73;;
65234;SDS011;51820;48.374;10.930;2023-01-25T14:02:36;28.15;;;9.60;;
65234;SDS011;51820;48.374;10.930;2023-01-25T14:05:15;28.27;;;9.27;;
65234;SDS011;51820;48.374;10.930;2023-01-25T14:07:45;31.67;;;9.65;;
65234;SDS011;51820;48.374;10.930;2023-01-25T14:10:16;32.35;;;10.10;;
65234;SDS011;51820;48.374;10.930;2023-01-25T14:12:49;35.27;;;10.17;;
65234;SDS011;51820;48.374;10.930;2023-01-25T14:15:21;32.00;;;9.57;;
65234;SDS011;51820;48.374;10.930;2023-01-25T14:20:39;30.98;;;10.63;;
65234;SDS011;51820;48.374;10.930;2023-01-25T14:23:21;29.60;;;8.73;;
65234;SDS011;51820;48.374;10.930;2023-01-25T14:25:51;32.73;;;9.17;;
65234;SDS011;51820;48.374;10.930;2023-01-25T14:28:20;30.95;;;10.18;;
65234;SDS011;51820;48.374;10.930;2023-01-25T14:30:54;31.20;;;9.88;;
65234;SDS011;51820;48.374;10.930;2023-01-25T14:33:27;31.67;;;9.38;;
65234;SDS011;51820;48.374;10.930;2023-01-25T14:36:15;32.75;;;9.68;;
65234;SDS011;51820;48.374;10.930;2023-01-25T14:42:19;34.67;;;9.27;;
65234;SDS011;51820;48.374;10.930;2023-01-25T14:44:57;28.25;;;8.38;;
65234;SDS011;51820;48.374;10.930;2023-01-25T14:51:24;26.80;;;9.25;;
65234;SDS011;51820;48.374;10.930;2023-01-25T15:05:20;30.42;;;8.80;;
65234;SDS011;51820;48.374;10.930;2023-01-25T15:10:53;32.47;;;10.30;;
65234;SDS011;51820;48.374;10.930;2023-01-25T15:14:12;30.50;;;9.80;;
65234;SDS011;51820;48.374;10.930;2023-01-25T15:16:44;33.30;;;11.00;;
65234;SDS011;51820;48.374;10.930;2023-01-25T15:19:38;31.33;;;9.60;;
65234;SDS011;51820;48.374;10.930;2023-01-25T15:22:08;29.92;;;10.27;;
65234;SDS011;51820;48.374;10.930;2023-01-25T15:24:52;30.90;;;10.53;;
65234;SDS011;51820;48.374;10.930;2023-01-25T15:27:53;27.20;;;8.82;;
65234;SDS011;51820;48.374;10.930;2023-01-25T15:30:34;33.40;;;10.25;;
65234;SDS011;51820;48.374;10.930;2023-01-25T15:33:19;29.85;;;9.57;;
65234;SDS011;51820;48.374;10.930;2023-01-25T15:35:49;26.73;;;8.68;;
65234;SDS011;51820;48.374;10.930;2023-01-25T15:38:22;26.70;;;8.90;;
65234;SDS011;51820;48.374;10.930;2023-01-25T15:41:06;24.23;;;8.30;;
65234;SDS011;51820;48.374;10.930;2023-01-25T15:47:05;28.45;;;9.07;;
65234;SDS011;51820;48.374;10.930;2023-01-25T15:49:38;25.50;;;8.10;;
65234;SDS011;51820;48.374;10.930;2023-01-25T15:52:13;24.03;;;8.23;;
65234;SDS011;51820;48.374;10.930;2023-01-25T15:54:53;27.02;;;8.02;;
65234;SDS011;51820;48.374;10.930;2023-01-25T15:57:32;25.67;;;8.85;;
65234;SDS011;51820;48.374;10.930;2023-01-25T16:00:12;29.95;;;8.48;;
65234;SDS011;51820;48.374;10.930;2023-01-25T16:03:05;28.90;;;9.40;;